sensor_id;sensor_type;location;lat;lon;timestamp;P1;durP1;ratioP1;P2;durP2;ratioP2
7807;SDS011;3949;49.254;8.894;2024-02-04T00:01:32;2.90;;;2.60;;
7807;SDS011;3949;49.254;8.894;2024-02-04T00:03:58;2.80;;;2.60;;
7807;SDS011;3949;49.254;8.894;2024-02-04T00:06:24;3.40;;;3.10;;
7807;SDS011;3949;49.254;8.894;2024-02-04T00:08:51;3.37;;;2.77;;
7807;SDS011;3949;49.254;8.894;2024-02-04T00:11:17;3.37;;;3.07;;
7807;SDS011;3949;49.254;8.894;2024-02-04T00:13:43;3.70;;;3.10;;
7807;SDS011;3949;49.254;8.894;2024-02-04T00:16:09;3.43;;;3.13;;
7807;SDS011;3949;49.254;8.894;2024-02-04T00:18:35;4.17;;;3.00;;
7807;SDS011;3949;49.254;8.894;2024-02-04T00:21:01;2.93;;;2.73;;
7807;SDS011;3949;49.254;8.894;2024-02-04T00:23:27;2.67;;;2.40;;
7807;SDS011;3949;49.254;8.894;2024-02-04T00:25:53;3.40;;;3.10;;
7807;SDS011;3949;49.254;8.894;2024-02-04T00:28:19;3.20;;;2.90;;
7807;SDS011;3949;49.254;8.894;2024-02-04T00:30:46;3.40;;;3.10;;
7807;SDS011;3949;49.254;8.894;2024-02-04T00:33:14;3.10;;;2.80;;
7807;SDS011;3949;49.254;8.894;2024-02-04T00:35:40;2.53;;;2.30;;
7807;SDS011;3949;49.254;8.894;2024-02-04T00:38:06;3.07;;;2.77;;
7807;SDS011;3949;49.254;8.894;2024-02-04T00:40:33;3.00;;;2.70;;
7807;SDS011;3949;49.254;8.894;2024-02-04T00:42:59;2.87;;;2.67;;
7807;SDS011;3949;49.254;8.894;2024-02-04T00:45:25;3.23;;;2.53;;
7807;SDS011;3949;49.254;8.894;2024-02-04T00:47:51;3.00;;;2.70;;
7807;SDS011;3949;49.254;8.894;2024-02-04T00:50:18;3.60;;;2.70;;
7807;SDS011;3949;49.254;8.894;2024-02-04T00:52:44;4.00;;;3.60;;
7807;SDS011;3949;49.254;8.894;2024-02-04T00:55:09;3.33;;;3.03;;
7807;SDS011;3949;49.254;8.894;2024-02-04T00:57:36;4.50;;;3.00;;
7807;SDS011;3949;49.254;8.894;2024-02-04T01:00:02;3.40;;;3.10;;
7807;SDS011;3949;49.254;8.894;2024-02-04T01:02:29;6.30;;;4.43;;
7807;SDS011;3949;49.254;8.894;2024-02-04T01:04:55;5.93;;;4.77;;
7807;SDS011;3949;49.254;8.894;2024-02-04T01:07:21;3.97;;;3.27;;
7807;SDS011;3949;49.254;8.894;2024-02-04T01:09:47;3.20;;;2.90;;
7807;SDS011;3949;49.254;8.894;2024-02-04T01:12:13;3.03;;;2.73;;
7807;SDS011;3949;49.254;8.894;2024-02-04T01:14:39;3.23;;;2.57;;
7807;SDS011;3949;49.254;8.894;2024-02-04T01:17:05;3.10;;;2.80;;
7807;SDS011;3949;49.254;8.894;2024-02-04T01:19:32;3.00;;;2.70;;
7807;SDS011;3949;49.254;8.894;2024-02-04T01:21:58;3.10;;;2.80;;
7807;SDS011;3949;49.254;8.894;2024-02-04T01:24:24;2.93;;;2.73;;
7807;SDS011;3949;49.254;8.894;2024-02-04T01:26:50;2.57;;;2.37;;
7807;SDS011;3949;49.254;8.894;2024-02-04T01:29:16;3.60;;;2.90;;
7807;SDS011;3949;49.254;8.894;2024-02-04T01:31:42;3.23;;;2.93;;
7807;SDS011;3949;49.254;8.894;2024-02-04T01:34:08;2.80;;;2.60;;
7807;SDS011;3949;49.254;8.894;2024-02-04T01:36:34;3.60;;;2.57;;
7807;SDS011;3949;49.254;8.894;2024-02-04T01:39:01;2.90;;;2.60;;
7807;SDS011;3949;49.254;8.894;2024-02-04T01:41:27;2.73;;;2.53;;
7807;SDS011;3949;49.254;8.894;2024-02-04T01:43:53;3.93;;;2.50;;
7807;SDS011;3949;49.254;8.894;2024-02-04T01:46:20;2.70;;;2.50;;
7807;SDS011;3949;49.254;8.894;2024-02-04T01:48:46;2.80;;;2.60;;
7807;SDS011;3949;49.254;8.894;2024-02-04T01:51:13;2.43;;;2.27;;
7807;SDS011;3949;49.254;8.894;2024-02-04T01:53:39;3.00;;;2.63;;
7807;SDS011;3949;49.254;8.894;2024-02-04T01:56:06;2.60;;;2.30;;
7807;SDS011;3949;49.254;8.894;2024-02-04T01:58:33;2.53;;;2.27;;
7807;SDS011;3949;49.254;8.894;2024-02-04T02:00:59;2.90;;;2.50;;
7807;SDS011;3949;49.254;8.894;2024-02-04T02:03:25;3.47;;;2.57;;
7807;SDS011;3949;49.254;8.894;2024-02-04T02:05:52;2.83;;;2.40;;
7807;SDS011;3949;49.254;8.894;2024-02-04T02:08:18;3.10;;;2.23;;
7807;SDS011;3949;49.254;8.894;2024-02-04T02:10:44;2.43;;;2.23;;
7807;SDS011;3949;49.254;8.894;2024-02-04T02:13:16;2.37;;;2.00;;
7807;SDS011;3949;49.254;8.894;2024-02-04T02:15:51;2.30;;;2.10;;
7807;SDS011;3949;49.254;8.894;2024-02-04T02:18:21;2.37;;;2.07;;
7807;SDS011;3949;49.254;8.894;2024-02-04T02:23:34;2.33;;;2.13;;
7807;SDS011;3949;49.254;8.894;2024-02-04T02:26:05;2.50;;;2.30;;
7807;SDS011;3949;49.254;8.894;2024-02-04T02:28:31;2.43;;;2.20;;
7807;SDS011;3949;49.254;8.894;2024-02-04T02:30:57;2.87;;;2.47;;
7807;SDS011;3949;49.254;8.894;2024-02-04T02:33:23;2.50;;;2.30;;
7807;SDS011;3949;49.254;8.894;2024-02-04T02:35:51;2.30;;;2.10;;
7807;SDS011;3949;49.254;8.894;2024-02-04T02:40:57;3.63;;;2.30;;
7807;SDS011;3949;49.254;8.894;2024-02-04T02:43:24;2.60;;;2.40;;
7807;SDS011;3949;49.254;8.894;2024-02-04T02:45:51;2.80;;;2.40;;
7807;SDS011;3949;49.254;8.894;2024-02-04T02:48:17;2.60;;;2.40;;
7807;SDS011;3949;49.254;8.894;2024-02-04T02:50:43;2.90;;;2.60;;
7807;SDS011;3949;49.254;8.894;2024-02-04T02:53:10;2.67;;;2.20;;
7807;SDS011;3949;49.254;8.894;2024-02-04T02:55:36;2.40;;;2.20;;
7807;SDS011;3949;49.254;8.894;2024-02-04T02:58:02;2.00;;;1.80;;
7807;SDS011;3949;49.254;8.894;2024-02-04T03:00:28;2.70;;;2.50;;
7807;SDS011;3949;49.254;8.894;2024-02-04T03:02:54;12.10;;;7.00;;
7807;SDS011;3949;49.254;8.894;2024-02-04T03:05:21;2.30;;;2.10;;
7807;SDS011;3949;49.254;8.894;2024-02-04T03:07:47;2.73;;;1.90;;
7807;SDS011;3949;49.254;8.894;2024-02-04T03:10:13;2.47;;;2.27;;
7807;SDS011;3949;49.254;8.894;2024-02-04T03:12:39;4.57;;;3.33;;
7807;SDS011;3949;49.254;8.894;2024-02-04T03:15:05;2.83;;;2.23;;
7807;SDS011;3949;49.254;8.894;2024-02-04T03:17:31;2.30;;;2.10;;
7807;SDS011;3949;49.254;8.894;2024-02-04T03:19:57;2.33;;;2.13;;
7807;SDS011;3949;49.254;8.894;2024-02-04T03:22:23;2.47;;;1.90;;
7807;SDS011;3949;49.254;8.894;2024-02-04T03:24:49;2.07;;;1.97;;
7807;SDS011;3949;49.254;8.894;2024-02-04T03:27:18;2.10;;;1.90;;
7807;SDS011;3949;49.254;8.894;2024-02-04T03:29:44;2.20;;;2.00;;
7807;SDS011;3949;49.254;8.894;2024-02-04T03:32:13;4.60;;;2.20;;
7807;SDS011;3949;49.254;8.894;2024-02-04T03:34:41;1.90;;;1.80;;
7807;SDS011;3949;49.254;8.894;2024-02-04T03:37:06;2.07;;;1.97;;
7807;SDS011;3949;49.254;8.894;2024-02-04T03:39:32;2.03;;;1.83;;
7807;SDS011;3949;49.254;8.894;2024-02-04T03:41:58;2.20;;;2.07;;
7807;SDS011;3949;49.254;8.894;2024-02-04T03:44:24;2.23;;;2.03;;
7807;SDS011;3949;49.254;8.894;2024-02-04T03:46:50;2.20;;;2.00;;
7807;SDS011;3949;49.254;8.894;2024-02-04T03:49:17;2.83;;;2.43;;
7807;SDS011;3949;49.254;8.894;2024-02-04T03:51:43;2.37;;;2.07;;
7807;SDS011;3949;49.254;8.894;2024-02-04T03:54:09;2.33;;;2.13;;
7807;SDS011;3949;49.254;8.894;2024-02-04T03:56:35;2.40;;;2.20;;
7807;SDS011;3949;49.254;8.894;2024-02-04T03:59:01;2.10;;;1.90;;
7807;SDS011;3949;49.254;8.894;2024-02-04T04:01:27;2.83;;;2.40;;
7807;SDS011;3949;49.254;8.894;2024-02-04T04:03:53;3.23;;;2.60;;
7807;SDS011;3949;49.254;8.894;2024-02-04T04:06:19;3.07;;;2.30;;
7807;SDS011;3949;49.254;8.894;2024-02-04T04:08:45;2.33;;;2.13;;
7807;SDS011;3949;49.254;8.894;2024-02-04T04:11:11;2.73;;;2.53;;
7807;SDS011;3949;49.254;8.894;2024-02-04T04:13:37;2.30;;;2.10;;
7807;SDS011;3949;49.254;8.894;2024-02-04T04:16:03;2.70;;;2.50;;
7807;SDS011;3949;49.254;8.894;2024-02-04T04:18:30;2.60;;;2.40;;
7807;SDS011;3949;49.254;8.894;2024-02-04T04:20:56;2.90;;;2.60;;
7807;SDS011;3949;49.254;8.894;2024-02-04T04:23:22;3.43;;;2.97;;
7807;SDS011;3949;49.254;8.894;2024-02-04T04:25:48;3.37;;;3.07;;
7807;SDS011;3949;49.254;8.894;2024-02-04T04:28:14;2.60;;;2.40;;
7807;SDS011;3949;49.254;8.894;2024-02-04T04:30:40;3.30;;;2.97;;
7807;SDS011;3949;49.254;8.894;2024-02-04T04:33:06;3.00;;;2.70;;
7807;SDS011;3949;49.254;8.894;2024-02-04T04:35:33;3.30;;;3.00;;
7807;SDS011;3949;49.254;8.894;2024-02-04T04:37:59;3.50;;;2.70;;
7807;SDS011;3949;49.254;8.894;2024-02-04T04:40:25;2.80;;;2.60;;
7807;SDS011;3949;49.254;8.894;2024-02-04T04:42:51;2.60;;;2.40;;
7807;SDS011;3949;49.254;8.894;2024-02-04T04:45:17;3.00;;;2.70;;
7807;SDS011;3949;49.254;8.894;2024-02-04T04:47:43;4.40;;;3.63;;
7807;SDS011;3949;49.254;8.894;2024-02-04T04:50:09;3.20;;;2.90;;
7807;SDS011;3949;49.254;8.894;2024-02-04T04:52:35;2.90;;;2.70;;
7807;SDS011;3949;49.254;8.894;2024-02-04T04:55:01;3.67;;;3.07;;
7807;SDS011;3949;49.254;8.894;2024-02-04T04:57:27;2.70;;;2.50;;
7807;SDS011;3949;49.254;8.894;2024-02-04T04:59:53;2.83;;;2.60;;
7807;SDS011;3949;49.254;8.894;2024-02-04T05:02:19;3.20;;;2.90;;
7807;SDS011;3949;49.254;8.894;2024-02-04T05:04:45;2.87;;;2.67;;
7807;SDS011;3949;49.254;8.894;2024-02-04T05:07:12;2.90;;;2.70;;
7807;SDS011;3949;49.254;8.894;2024-02-04T05:09:38;3.80;;;3.00;;
7807;SDS011;3949;49.254;8.894;2024-02-04T05:12:06;2.77;;;2.57;;
7807;SDS011;3949;49.254;8.894;2024-02-04T05:14:32;2.80;;;2.60;;
7807;SDS011;3949;49.254;8.894;2024-02-04T05:16:58;2.97;;;2.67;;
7807;SDS011;3949;49.254;8.894;2024-02-04T05:19:24;2.63;;;2.43;;
7807;SDS011;3949;49.254;8.894;2024-02-04T05:21:50;2.73;;;2.50;;
7807;SDS011;3949;49.254;8.894;2024-02-04T05:24:15;3.00;;;2.63;;
7807;SDS011;3949;49.254;8.894;2024-02-04T05:26:41;3.07;;;2.43;;
7807;SDS011;3949;49.254;8.894;2024-02-04T05:29:07;3.23;;;2.90;;
7807;SDS011;3949;49.254;8.894;2024-02-04T05:31:33;4.07;;;3.67;;
7807;SDS011;3949;49.254;8.894;2024-02-04T05:34:04;2.93;;;2.73;;
7807;SDS011;3949;49.254;8.894;2024-02-04T05:36:31;2.60;;;2.40;;
7807;SDS011;3949;49.254;8.894;2024-02-04T05:38:57;4.93;;;2.70;;
7807;SDS011;3949;49.254;8.894;2024-02-04T05:41:34;2.80;;;2.60;;
7807;SDS011;3949;49.254;8.894;2024-02-04T05:44:00;2.77;;;2.57;;
7807;SDS011;3949;49.254;8.894;2024-02-04T05:46:26;2.80;;;2.60;;
7807;SDS011;3949;49.254;8.894;2024-02-04T05:48:52;2.23;;;2.03;;
7807;SDS011;3949;49.254;8.894;2024-02-04T05:51:18;2.63;;;2.20;;
7807;SDS011;3949;49.254;8.894;2024-02-04T05:53:44;2.47;;;2.27;;
7807;SDS011;3949;49.254;8.894;2024-02-04T05:56:10;2.60;;;2.40;;
7807;SDS011;3949;49.254;8.894;2024-02-04T05:58:36;3.10;;;2.80;;
7807;SDS011;3949;49.254;8.894;2024-02-04T06:01:03;2.60;;;2.40;;
7807;SDS011;3949;49.254;8.894;2024-02-04T06:03:28;2.93;;;2.20;;
7807;SDS011;3949;49.254;8.894;2024-02-04T06:05:54;2.60;;;2.40;;
7807;SDS011;3949;49.254;8.894;2024-02-04T06:08:20;3.33;;;2.90;;
7807;SDS011;3949;49.254;8.894;2024-02-04T06:10:46;2.63;;;2.43;;
7807;SDS011;3949;49.254;8.894;2024-02-04T06:13:12;2.77;;;2.20;;
7807;SDS011;3949;49.254;8.894;2024-02-04T06:15:38;2.50;;;2.30;;
7807;SDS011;3949;49.254;8.894;2024-02-04T06:18:04;2.20;;;2.00;;
7807;SDS011;3949;49.254;8.894;2024-02-04T06:20:30;3.20;;;2.90;;
7807;SDS011;3949;49.254;8.894;2024-02-04T06:22:56;3.63;;;2.27;;
7807;SDS011;3949;49.254;8.894;2024-02-04T06:25:23;2.40;;;2.20;;
7807;SDS011;3949;49.254;8.894;2024-02-04T06:27:49;2.80;;;2.47;;
7807;SDS011;3949;49.254;8.894;2024-02-04T06:30:15;2.50;;;2.30;;
7807;SDS011;3949;49.254;8.894;2024-02-04T06:32:41;2.20;;;1.93;;
7807;SDS011;3949;49.254;8.894;2024-02-04T06:35:07;2.20;;;2.00;;
7807;SDS011;3949;49.254;8.894;2024-02-04T06:37:33;1.80;;;1.70;;
7807;SDS011;3949;49.254;8.894;2024-02-04T06:39:59;2.40;;;2.20;;
7807;SDS011;3949;49.254;8.894;2024-02-04T06:42:25;2.00;;;1.90;;
7807;SDS011;3949;49.254;8.894;2024-02-04T06:44:51;2.20;;;1.70;;
7807;SDS011;3949;49.254;8.894;2024-02-04T06:47:17;1.97;;;1.87;;
7807;SDS011;3949;49.254;8.894;2024-02-04T06:49:43;2.00;;;1.90;;
7807;SDS011;3949;49.254;8.894;2024-02-04T06:52:12;1.77;;;1.67;;
7807;SDS011;3949;49.254;8.894;2024-02-04T06:54:38;1.90;;;1.80;;
7807;SDS011;3949;49.254;8.894;2024-02-04T06:57:04;1.90;;;1.70;;
7807;SDS011;3949;49.254;8.894;2024-02-04T06:59:30;2.03;;;1.83;;
7807;SDS011;3949;49.254;8.894;2024-02-04T07:01:56;2.30;;;1.97;;
7807;SDS011;3949;49.254;8.894;2024-02-04T07:04:22;1.70;;;1.60;;
7807;SDS011;3949;49.254;8.894;2024-02-04T07:06:49;2.33;;;1.77;;
7807;SDS011;3949;49.254;8.894;2024-02-04T07:09:16;2.50;;;2.30;;
7807;SDS011;3949;49.254;8.894;2024-02-04T07:11:42;1.97;;;1.67;;
7807;SDS011;3949;49.254;8.894;2024-02-04T07:14:08;2.07;;;1.87;;
7807;SDS011;3949;49.254;8.894;2024-02-04T07:16:34;4.33;;;1.77;;
7807;SDS011;3949;49.254;8.894;2024-02-04T07:19:00;1.40;;;1.30;;
7807;SDS011;3949;49.254;8.894;2024-02-04T07:21:26;1.57;;;1.30;;
7807;SDS011;3949;49.254;8.894;2024-02-04T07:23:52;1.50;;;1.40;;
7807;SDS011;3949;49.254;8.894;2024-02-04T07:26:18;1.43;;;1.33;;
7807;SDS011;3949;49.254;8.894;2024-02-04T07:28:43;1.13;;;1.10;;
7807;SDS011;3949;49.254;8.894;2024-02-04T07:31:10;2.00;;;1.77;;
7807;SDS011;3949;49.254;8.894;2024-02-04T07:33:36;1.90;;;1.73;;
7807;SDS011;3949;49.254;8.894;2024-02-04T07:36:02;1.87;;;1.73;;
7807;SDS011;3949;49.254;8.894;2024-02-04T07:38:28;1.77;;;1.57;;
7807;SDS011;3949;49.254;8.894;2024-02-04T07:40:54;2.23;;;1.97;;
7807;SDS011;3949;49.254;8.894;2024-02-04T07:43:23;1.67;;;1.57;;
7807;SDS011;3949;49.254;8.894;2024-02-04T07:45:49;1.53;;;1.43;;
7807;SDS011;3949;49.254;8.894;2024-02-04T07:48:15;1.40;;;1.30;;
7807;SDS011;3949;49.254;8.894;2024-02-04T07:50:42;1.67;;;1.20;;
7807;SDS011;3949;49.254;8.894;2024-02-04T07:53:08;3.20;;;2.83;;
7807;SDS011;3949;49.254;8.894;2024-02-04T07:55:34;1.63;;;1.50;;
7807;SDS011;3949;49.254;8.894;2024-02-04T07:58:00;1.90;;;1.40;;
7807;SDS011;3949;49.254;8.894;2024-02-04T08:00:26;2.53;;;1.43;;
7807;SDS011;3949;49.254;8.894;2024-02-04T08:02:52;1.50;;;1.10;;
7807;SDS011;3949;49.254;8.894;2024-02-04T08:05:18;1.40;;;1.30;;
7807;SDS011;3949;49.254;8.894;2024-02-04T08:07:44;1.70;;;1.30;;
7807;SDS011;3949;49.254;8.894;2024-02-04T08:10:10;1.20;;;1.20;;
7807;SDS011;3949;49.254;8.894;2024-02-04T08:12:36;1.87;;;1.47;;
7807;SDS011;3949;49.254;8.894;2024-02-04T08:15:02;1.93;;;1.53;;
7807;SDS011;3949;49.254;8.894;2024-02-04T08:17:29;1.20;;;1.10;;
7807;SDS011;3949;49.254;8.894;2024-02-04T08:19:56;1.50;;;1.40;;
7807;SDS011;3949;49.254;8.894;2024-02-04T08:22:22;1.23;;;1.13;;
7807;SDS011;3949;49.254;8.894;2024-02-04T08:24:48;2.33;;;2.13;;
7807;SDS011;3949;49.254;8.894;2024-02-04T08:27:14;1.00;;;1.00;;
7807;SDS011;3949;49.254;8.894;2024-02-04T08:29:41;1.30;;;1.20;;
7807;SDS011;3949;49.254;8.894;2024-02-04T08:32:07;1.10;;;1.10;;
7807;SDS011;3949;49.254;8.894;2024-02-04T08:34:33;1.40;;;1.30;;
7807;SDS011;3949;49.254;8.894;2024-02-04T08:36:59;1.50;;;1.40;;
7807;SDS011;3949;49.254;8.894;2024-02-04T08:39:25;0.90;;;0.90;;
7807;SDS011;3949;49.254;8.894;2024-02-04T08:41:51;1.40;;;1.30;;
7807;SDS011;3949;49.254;8.894;2024-02-04T08:44:17;1.43;;;1.33;;
7807;SDS011;3949;49.254;8.894;2024-02-04T08:46:43;1.27;;;1.17;;
7807;SDS011;3949;49.254;8.894;2024-02-04T08:49:09;1.63;;;1.53;;
7807;SDS011;3949;49.254;8.894;2024-02-04T08:51:35;1.70;;;1.30;;
7807;SDS011;3949;49.254;8.894;2024-02-04T08:54:01;1.83;;;1.10;;
7807;SDS011;3949;49.254;8.894;2024-02-04T08:56:27;1.37;;;1.23;;
7807;SDS011;3949;49.254;8.894;2024-02-04T08:58:53;1.30;;;0.97;;
7807;SDS011;3949;49.254;8.894;2024-02-04T09:01:19;1.50;;;1.40;;
7807;SDS011;3949;49.254;8.894;2024-02-04T09:03:45;1.30;;;1.20;;
7807;SDS011;3949;49.254;8.894;2024-02-04T09:06:11;1.47;;;1.37;;
7807;SDS011;3949;49.254;8.894;2024-02-04T09:08:37;0.90;;;0.90;;
7807;SDS011;3949;49.254;8.894;2024-02-04T09:11:03;1.27;;;1.20;;
7807;SDS011;3949;49.254;8.894;2024-02-04T09:13:29;0.97;;;0.97;;
7807;SDS011;3949;49.254;8.894;2024-02-04T09:15:55;1.00;;;0.90;;
7807;SDS011;3949;49.254;8.894;2024-02-04T09:18:21;1.17;;;1.03;;
7807;SDS011;3949;49.254;8.894;2024-02-04T09:20:47;1.87;;;1.70;;
7807;SDS011;3949;49.254;8.894;2024-02-04T09:23:13;1.30;;;1.20;;
7807;SDS011;3949;49.254;8.894;2024-02-04T09:25:39;0.97;;;0.97;;
7807;SDS011;3949;49.254;8.894;2024-02-04T09:28:05;0.90;;;0.90;;
7807;SDS011;3949;49.254;8.894;2024-02-04T09:30:31;1.10;;;1.10;;
7807;SDS011;3949;49.254;8.894;2024-02-04T09:32:57;1.67;;;1.40;;
7807;SDS011;3949;49.254;8.894;2024-02-04T09:35:23;0.80;;;0.77;;
7807;SDS011;3949;49.254;8.894;2024-02-04T09:37:49;1.20;;;1.10;;
7807;SDS011;3949;49.254;8.894;2024-02-04T09:40:15;1.40;;;0.80;;
7807;SDS011;3949;49.254;8.894;2024-02-04T09:42:42;1.47;;;1.37;;
7807;SDS011;3949;49.254;8.894;2024-02-04T09:45:08;1.27;;;1.17;;
7807;SDS011;3949;49.254;8.894;2024-02-04T09:47:35;2.40;;;2.07;;
7807;SDS011;3949;49.254;8.894;2024-02-04T09:50:01;1.07;;;1.07;;
7807;SDS011;3949;49.254;8.894;2024-02-04T09:52:29;2.07;;;1.37;;
7807;SDS011;3949;49.254;8.894;2024-02-04T09:55:01;1.13;;;1.10;;
7807;SDS011;3949;49.254;8.894;2024-02-04T09:57:30;1.30;;;1.20;;
7807;SDS011;3949;49.254;8.894;2024-02-04T09:59:57;1.30;;;1.20;;
7807;SDS011;3949;49.254;8.894;2024-02-04T10:02:23;2.00;;;1.80;;
7807;SDS011;3949;49.254;8.894;2024-02-04T10:04:50;2.50;;;2.30;;
7807;SDS011;3949;49.254;8.894;2024-02-04T10:07:16;1.93;;;1.50;;
7807;SDS011;3949;49.254;8.894;2024-02-04T10:09:43;1.33;;;1.23;;
7807;SDS011;3949;49.254;8.894;2024-02-04T10:12:09;1.40;;;1.30;;
7807;SDS011;3949;49.254;8.894;2024-02-04T10:14:35;1.20;;;1.10;;
7807;SDS011;3949;49.254;8.894;2024-02-04T10:17:02;1.30;;;1.30;;
7807;SDS011;3949;49.254;8.894;2024-02-04T10:19:28;2.07;;;1.13;;
7807;SDS011;3949;49.254;8.894;2024-02-04T10:22:00;1.30;;;1.20;;
7807;SDS011;3949;49.254;8.894;2024-02-04T10:24:27;2.00;;;1.40;;
7807;SDS011;3949;49.254;8.894;2024-02-04T10:26:53;1.53;;;1.07;;
7807;SDS011;3949;49.254;8.894;2024-02-04T10:29:19;1.20;;;1.10;;
7807;SDS011;3949;49.254;8.894;2024-02-04T10:31:45;1.20;;;1.10;;
7807;SDS011;3949;49.254;8.894;2024-02-04T10:34:11;1.40;;;1.30;;
7807;SDS011;3949;49.254;8.894;2024-02-04T10:36:37;2.47;;;1.20;;
7807;SDS011;3949;49.254;8.894;2024-02-04T10:39:04;1.30;;;1.20;;
7807;SDS011;3949;49.254;8.894;2024-02-04T10:41:31;1.27;;;1.20;;
7807;SDS011;3949;49.254;8.894;2024-02-04T10:43:59;1.13;;;1.13;;
7807;SDS011;3949;49.254;8.894;2024-02-04T10:46:29;1.77;;;1.30;;
7807;SDS011;3949;49.254;8.894;2024-02-04T10:48:59;1.40;;;1.30;;
7807;SDS011;3949;49.254;8.894;2024-02-04T10:51:26;1.27;;;1.23;;
7807;SDS011;3949;49.254;8.894;2024-02-04T10:53:55;1.20;;;1.20;;
7807;SDS011;3949;49.254;8.894;2024-02-04T10:56:22;9.00;;;3.53;;
7807;SDS011;3949;49.254;8.894;2024-02-04T10:58:51;1.80;;;1.10;;
7807;SDS011;3949;49.254;8.894;2024-02-04T11:01:17;1.60;;;1.50;;
7807;SDS011;3949;49.254;8.894;2024-02-04T11:03:44;1.17;;;1.07;;
7807;SDS011;3949;49.254;8.894;2024-02-04T11:06:11;1.30;;;1.20;;
7807;SDS011;3949;49.254;8.894;2024-02-04T11:08:40;0.90;;;0.90;;
7807;SDS011;3949;49.254;8.894;2024-02-04T11:11:06;1.70;;;1.47;;
7807;SDS011;3949;49.254;8.894;2024-02-04T11:13:32;2.57;;;1.27;;
7807;SDS011;3949;49.254;8.894;2024-02-04T11:15:59;1.23;;;1.13;;
7807;SDS011;3949;49.254;8.894;2024-02-04T11:26:08;1.80;;;1.70;;
7807;SDS011;3949;49.254;8.894;2024-02-04T11:28:34;1.87;;;1.47;;
7807;SDS011;3949;49.254;8.894;2024-02-04T11:31:01;1.40;;;1.13;;
7807;SDS011;3949;49.254;8.894;2024-02-04T11:33:28;1.33;;;1.23;;
7807;SDS011;3949;49.254;8.894;2024-02-04T11:38:29;2.10;;;1.10;;
7807;SDS011;3949;49.254;8.894;2024-02-04T11:40:55;1.50;;;1.40;;
7807;SDS011;3949;49.254;8.894;2024-02-04T11:43:22;1.27;;;1.03;;
7807;SDS011;3949;49.254;8.894;2024-02-04T11:45:51;1.20;;;1.20;;
7807;SDS011;3949;49.254;8.894;2024-02-04T11:48:28;1.40;;;1.30;;
7807;SDS011;3949;49.254;8.894;2024-02-04T11:50:54;0.97;;;0.97;;
7807;SDS011;3949;49.254;8.894;2024-02-04T11:53:20;0.80;;;0.80;;
7807;SDS011;3949;49.254;8.894;2024-02-04T11:55:46;1.97;;;1.10;;
7807;SDS011;3949;49.254;8.894;2024-02-04T11:58:12;1.23;;;1.13;;
7807;SDS011;3949;49.254;8.894;2024-02-04T12:00:41;3.40;;;2.43;;
7807;SDS011;3949;49.254;8.894;2024-02-04T12:03:09;0.90;;;0.90;;
7807;SDS011;3949;49.254;8.894;2024-02-04T12:05:35;1.00;;;1.00;;
7807;SDS011;3949;49.254;8.894;2024-02-04T12:08:05;6.60;;;4.57;;
7807;SDS011;3949;49.254;8.894;2024-02-04T12:10:31;1.87;;;1.40;;
7807;SDS011;3949;49.254;8.894;2024-02-04T12:13:04;1.80;;;0.97;;
7807;SDS011;3949;49.254;8.894;2024-02-04T12:15:31;2.00;;;1.50;;
7807;SDS011;3949;49.254;8.894;2024-02-04T12:18:10;0.80;;;0.80;;
7807;SDS011;3949;49.254;8.894;2024-02-04T12:20:37;0.80;;;0.80;;
7807;SDS011;3949;49.254;8.894;2024-02-04T12:23:03;1.67;;;1.13;;
7807;SDS011;3949;49.254;8.894;2024-02-04T12:25:30;1.07;;;0.97;;
7807;SDS011;3949;49.254;8.894;2024-02-04T12:27:59;2.63;;;1.87;;
7807;SDS011;3949;49.254;8.894;2024-02-04T12:30:28;2.07;;;1.87;;
7807;SDS011;3949;49.254;8.894;2024-02-04T12:35:23;1.17;;;0.80;;
7807;SDS011;3949;49.254;8.894;2024-02-04T12:37:50;0.80;;;0.80;;
7807;SDS011;3949;49.254;8.894;2024-02-04T12:40:29;1.23;;;0.90;;
7807;SDS011;3949;49.254;8.894;2024-02-04T12:42:56;0.73;;;0.60;;
7807;SDS011;3949;49.254;8.894;2024-02-04T12:45:23;0.70;;;0.70;;
7807;SDS011;3949;49.254;8.894;2024-02-04T12:47:50;1.70;;;1.50;;
7807;SDS011;3949;49.254;8.894;2024-02-04T12:50:16;1.57;;;1.20;;
7807;SDS011;3949;49.254;8.894;2024-02-04T12:52:43;0.70;;;0.70;;
7807;SDS011;3949;49.254;8.894;2024-02-04T12:55:18;0.90;;;0.83;;
7807;SDS011;3949;49.254;8.894;2024-02-04T12:57:44;0.80;;;0.70;;
7807;SDS011;3949;49.254;8.894;2024-02-04T13:00:11;0.63;;;0.63;;
7807;SDS011;3949;49.254;8.894;2024-02-04T13:02:37;1.17;;;0.80;;
7807;SDS011;3949;49.254;8.894;2024-02-04T13:05:04;2.63;;;1.17;;
7807;SDS011;3949;49.254;8.894;2024-02-04T13:07:31;0.87;;;0.87;;
7807;SDS011;3949;49.254;8.894;2024-02-04T13:09:58;0.70;;;0.70;;
7807;SDS011;3949;49.254;8.894;2024-02-04T13:12:27;0.63;;;0.63;;
7807;SDS011;3949;49.254;8.894;2024-02-04T13:14:53;0.77;;;0.70;;
7807;SDS011;3949;49.254;8.894;2024-02-04T13:17:19;0.80;;;0.80;;
7807;SDS011;3949;49.254;8.894;2024-02-04T13:19:45;1.17;;;1.10;;
7807;SDS011;3949;49.254;8.894;2024-02-04T13:22:11;1.03;;;0.93;;
7807;SDS011;3949;49.254;8.894;2024-02-04T13:24:39;1.00;;;0.90;;
7807;SDS011;3949;49.254;8.894;2024-02-04T13:27:05;0.80;;;0.80;;
7807;SDS011;3949;49.254;8.894;2024-02-04T13:29:34;0.83;;;0.80;;
7807;SDS011;3949;49.254;8.894;2024-02-04T13:32:00;0.70;;;0.70;;
7807;SDS011;3949;49.254;8.894;2024-02-04T13:34:26;1.00;;;0.80;;
7807;SDS011;3949;49.254;8.894;2024-02-04T13:36:52;0.50;;;0.50;;
7807;SDS011;3949;49.254;8.894;2024-02-04T13:39:18;1.23;;;1.13;;
7807;SDS011;3949;49.254;8.894;2024-02-04T13:41:45;1.20;;;0.93;;
7807;SDS011;3949;49.254;8.894;2024-02-04T13:44:11;1.00;;;0.90;;
7807;SDS011;3949;49.254;8.894;2024-02-04T13:46:37;0.90;;;0.90;;
7807;SDS011;3949;49.254;8.894;2024-02-04T13:49:07;0.90;;;0.90;;
7807;SDS011;3949;49.254;8.894;2024-02-04T13:51:33;1.10;;;1.00;;
7807;SDS011;3949;49.254;8.894;2024-02-04T13:54:00;1.13;;;0.97;;
7807;SDS011;3949;49.254;8.894;2024-02-04T13:56:26;1.27;;;0.90;;
7807;SDS011;3949;49.254;8.894;2024-02-04T13:58:54;0.70;;;0.70;;
7807;SDS011;3949;49.254;8.894;2024-02-04T14:01:21;0.87;;;0.80;;
7807;SDS011;3949;49.254;8.894;2024-02-04T14:03:47;3.77;;;2.93;;
7807;SDS011;3949;49.254;8.894;2024-02-04T14:06:15;0.93;;;0.93;;
7807;SDS011;3949;49.254;8.894;2024-02-04T14:08:41;1.00;;;1.00;;
7807;SDS011;3949;49.254;8.894;2024-02-04T14:11:07;0.80;;;0.80;;
7807;SDS011;3949;49.254;8.894;2024-02-04T14:13:33;1.37;;;1.27;;
7807;SDS011;3949;49.254;8.894;2024-02-04T14:15:59;0.80;;;0.80;;
7807;SDS011;3949;49.254;8.894;2024-02-04T14:18:25;0.73;;;0.73;;
7807;SDS011;3949;49.254;8.894;2024-02-04T14:20:51;1.00;;;0.97;;
7807;SDS011;3949;49.254;8.894;2024-02-04T14:23:17;0.90;;;0.90;;
7807;SDS011;3949;49.254;8.894;2024-02-04T14:25:43;1.47;;;1.33;;
7807;SDS011;3949;49.254;8.894;2024-02-04T14:28:10;2.20;;;0.80;;
7807;SDS011;3949;49.254;8.894;2024-02-04T14:30:36;1.03;;;0.90;;
7807;SDS011;3949;49.254;8.894;2024-02-04T14:33:02;1.13;;;1.03;;
7807;SDS011;3949;49.254;8.894;2024-02-04T14:35:28;0.70;;;0.70;;
7807;SDS011;3949;49.254;8.894;2024-02-04T14:37:55;1.10;;;1.00;;
7807;SDS011;3949;49.254;8.894;2024-02-04T14:40:21;1.70;;;0.60;;
7807;SDS011;3949;49.254;8.894;2024-02-04T14:42:47;2.33;;;0.73;;
7807;SDS011;3949;49.254;8.894;2024-02-04T14:45:13;0.70;;;0.70;;
7807;SDS011;3949;49.254;8.894;2024-02-04T14:47:39;1.87;;;1.27;;
7807;SDS011;3949;49.254;8.894;2024-02-04T14:50:05;0.93;;;0.93;;
7807;SDS011;3949;49.254;8.894;2024-02-04T14:52:31;0.80;;;0.80;;
7807;SDS011;3949;49.254;8.894;2024-02-04T14:54:57;0.90;;;0.87;;
7807;SDS011;3949;49.254;8.894;2024-02-04T14:57:23;1.27;;;1.00;;
7807;SDS011;3949;49.254;8.894;2024-02-04T14:59:49;0.83;;;0.83;;
7807;SDS011;3949;49.254;8.894;2024-02-04T15:02:15;1.60;;;1.20;;
7807;SDS011;3949;49.254;8.894;2024-02-04T15:04:41;1.80;;;1.30;;
7807;SDS011;3949;49.254;8.894;2024-02-04T15:07:07;1.40;;;1.30;;
7807;SDS011;3949;49.254;8.894;2024-02-04T15:09:33;1.03;;;0.93;;
7807;SDS011;3949;49.254;8.894;2024-02-04T15:12:00;1.50;;;1.40;;
7807;SDS011;3949;49.254;8.894;2024-02-04T15:14:26;1.30;;;1.20;;
7807;SDS011;3949;49.254;8.894;2024-02-04T15:16:53;2.40;;;1.27;;
7807;SDS011;3949;49.254;8.894;2024-02-04T15:19:24;1.30;;;1.20;;
7807;SDS011;3949;49.254;8.894;2024-02-04T15:21:51;1.40;;;1.30;;
7807;SDS011;3949;49.254;8.894;2024-02-04T15:24:17;1.90;;;1.47;;
7807;SDS011;3949;49.254;8.894;2024-02-04T15:26:43;2.07;;;1.40;;
7807;SDS011;3949;49.254;8.894;2024-02-04T15:29:11;1.60;;;1.30;;